createdAt,value
2018-09-12T00:00:49.791Z,4.73
2018-09-12T00:03:19.047Z,4.73
2018-09-12T00:05:48.331Z,6.90
2018-09-12T00:08:17.512Z,5.87
2018-09-12T00:10:46.820Z,4.97
2018-09-12T00:13:16.127Z,5.30
2018-09-12T00:15:45.425Z,9.10
2018-09-12T00:18:14.691Z,4.63
2018-09-12T00:20:43.983Z,5.53
2018-09-12T00:23:13.254Z,5.70
2018-09-12T00:25:42.466Z,4.87
2018-09-12T00:28:11.741Z,7.50
2018-09-12T00:30:40.985Z,5.07
2018-09-12T00:33:10.267Z,7.00
2018-09-12T00:35:39.542Z,8.20
2018-09-12T00:38:08.806Z,5.57
2018-09-12T00:40:38.167Z,10.27
2018-09-12T00:43:07.465Z,6.00
2018-09-12T00:45:36.770Z,3.90
2018-09-12T00:48:06.159Z,5.77
2018-09-12T00:50:35.517Z,6.40
2018-09-12T00:53:04.824Z,7.47
2018-09-12T00:55:34.120Z,4.07
2018-09-12T00:58:03.381Z,5.00
2018-09-12T01:00:32.866Z,4.07
2018-09-12T01:03:02.254Z,4.90
2018-09-12T01:05:31.575Z,6.90
2018-09-12T01:08:00.910Z,6.17
2018-09-12T01:10:30.233Z,3.90
2018-09-12T01:12:59.483Z,4.83
2018-09-12T01:15:28.800Z,4.47
2018-09-12T01:17:58.139Z,6.57
2018-09-12T01:20:27.400Z,4.63
2018-09-12T01:22:56.740Z,6.93
2018-09-12T01:25:25.995Z,7.70
2018-09-12T01:27:58.307Z,5.80
2018-09-12T01:30:27.562Z,8.00
2018-09-12T01:32:57.794Z,5.30
2018-09-12T01:35:27.098Z,4.70
2018-09-12T01:37:56.391Z,10.77
2018-09-12T01:40:25.662Z,5.50
2018-09-12T01:42:54.971Z,4.77
2018-09-12T01:45:24.250Z,4.67
2018-09-12T01:47:53.531Z,5.37
2018-09-12T01:50:22.741Z,4.77
2018-09-12T01:52:52.128Z,4.90
2018-09-12T01:55:21.421Z,4.73
2018-09-12T01:57:50.726Z,5.23
2018-09-12T02:00:20.182Z,7.27
2018-09-12T02:02:49.529Z,6.07
2018-09-12T02:05:18.795Z,7.60
2018-09-12T02:07:48.108Z,5.63
2018-09-12T02:10:17.359Z,7.70
2018-09-12T02:12:46.619Z,7.80
2018-09-12T02:15:15.894Z,9.57
2018-09-12T02:17:45.165Z,5.17
2018-09-12T02:20:14.437Z,8.87
2018-09-12T02:22:43.727Z,6.97
2018-09-12T02:25:12.945Z,4.97
2018-09-12T02:27:42.275Z,7.80
2018-09-12T02:30:11.586Z,7.03
2018-09-12T02:32:40.886Z,5.47
2018-09-12T02:35:10.187Z,6.30
2018-09-12T02:37:39.394Z,5.50
2018-09-12T02:40:09.239Z,5.33
2018-09-12T02:42:38.508Z,9.27
2018-09-12T02:45:08.027Z,5.40
2018-09-12T02:47:38.452Z,5.93
2018-09-12T02:50:12.055Z,4.90
2018-09-12T02:52:41.397Z,8.90
2018-09-12T02:55:12.477Z,4.77
2018-09-12T02:57:41.822Z,6.07
2018-09-12T03:00:11.215Z,4.60
2018-09-12T03:02:40.466Z,6.30
2018-09-12T03:05:09.806Z,6.17
2018-09-12T03:07:39.094Z,6.13
2018-09-12T03:10:08.569Z,5.53
2018-09-12T03:12:37.882Z,6.50
2018-09-12T03:15:07.255Z,4.37
2018-09-12T03:17:36.546Z,5.77
2018-09-12T03:20:05.911Z,5.10
2018-09-12T03:22:35.254Z,5.47
2018-09-12T03:25:04.654Z,5.20
2018-09-12T03:27:33.920Z,5.07
2018-09-12T03:30:03.270Z,4.23
2018-09-12T03:32:32.552Z,4.43
2018-09-12T03:35:01.888Z,4.83
2018-09-12T03:37:31.249Z,5.47
2018-09-12T03:40:00.556Z,6.83
2018-09-12T03:42:29.830Z,6.10
2018-09-12T03:44:59.154Z,6.17
2018-09-12T03:47:28.494Z,5.70
2018-09-12T03:49:57.741Z,6.63
2018-09-12T03:52:26.979Z,5.27
2018-09-12T03:54:56.243Z,6.27
2018-09-12T03:57:25.470Z,7.30
2018-09-12T03:59:54.802Z,6.13
2018-09-12T04:02:24.055Z,6.83
2018-09-12T04:04:53.468Z,6.33
2018-09-12T04:07:22.802Z,6.87
2018-09-12T04:09:52.144Z,5.47
2018-09-12T04:12:21.415Z,6.13
2018-09-12T04:14:50.678Z,5.30
2018-09-12T04:17:20.011Z,5.07
2018-09-12T04:19:49.313Z,5.80
2018-09-12T04:22:18.590Z,5.97
2018-09-12T04:24:47.876Z,6.00
2018-09-12T04:27:17.147Z,6.00
2018-09-12T04:29:46.450Z,12.20
2018-09-12T04:32:15.819Z,5.77
2018-09-12T04:34:45.079Z,4.90
2018-09-12T04:37:14.447Z,4.47
2018-09-12T04:39:43.710Z,5.17
2018-09-12T04:42:12.990Z,5.90
2018-09-12T04:44:42.255Z,6.23
2018-09-12T04:47:11.662Z,9.47
2018-09-12T04:49:40.980Z,5.33
2018-09-12T04:52:10.215Z,7.33
2018-09-12T04:54:39.487Z,5.80
2018-09-12T04:57:08.808Z,11.77
2018-09-12T04:59:38.217Z,6.50
2018-09-12T05:02:07.446Z,8.73
2018-09-12T05:04:36.668Z,8.90
2018-09-12T05:07:06.111Z,5.47
2018-09-12T05:09:35.377Z,6.53
2018-09-12T05:12:04.709Z,5.93
2018-09-12T05:14:33.970Z,5.13
2018-09-12T05:17:03.323Z,8.53
2018-09-12T05:19:32.599Z,6.47
2018-09-12T05:22:01.883Z,6.10
2018-09-12T05:24:31.266Z,10.43
2018-09-12T05:27:00.575Z,8.13
2018-09-12T05:29:29.833Z,7.83
2018-09-12T05:31:59.260Z,5.43
2018-09-12T05:34:28.655Z,8.07
2018-09-12T05:36:57.946Z,6.30
2018-09-12T05:39:27.207Z,7.47
2018-09-12T05:41:56.514Z,5.83
2018-09-12T05:44:25.762Z,6.20
2018-09-12T05:46:55.031Z,5.67
2018-09-12T05:49:24.391Z,6.13
2018-09-12T05:51:53.671Z,6.53
2018-09-12T05:54:22.964Z,4.90
2018-09-12T05:56:52.274Z,5.70
2018-09-12T05:59:21.606Z,7.23
2018-09-12T06:01:50.891Z,7.50
2018-09-12T06:04:20.254Z,6.37
2018-09-12T06:06:49.737Z,7.27
2018-09-12T06:09:18.894Z,6.30
2018-09-12T06:11:48.182Z,5.97
2018-09-12T06:14:17.569Z,5.53
2018-09-12T06:16:46.843Z,5.73
2018-09-12T06:19:16.158Z,8.33
2018-09-12T06:21:45.440Z,6.10
2018-09-12T06:24:14.743Z,6.13
2018-09-12T06:26:44.046Z,5.80
2018-09-12T06:29:13.392Z,7.63
2018-09-12T06:31:42.578Z,7.27
2018-09-12T06:34:11.867Z,6.00
2018-09-12T06:36:41.163Z,7.17
2018-09-12T06:39:12.245Z,7.87
2018-09-12T06:41:41.562Z,8.27
2018-09-12T06:44:10.907Z,6.37
2018-09-12T06:46:40.233Z,5.93
2018-09-12T06:49:09.584Z,5.87
2018-09-12T06:51:38.909Z,5.87
2018-09-12T06:54:08.287Z,6.60
2018-09-12T06:56:37.606Z,6.53
2018-09-12T06:59:06.882Z,5.43
2018-09-12T07:01:36.135Z,7.87
2018-09-12T07:04:05.482Z,5.60
2018-09-12T07:06:34.847Z,8.87
2018-09-12T07:09:05.614Z,5.70
2018-09-12T07:11:34.921Z,5.73
2018-09-12T07:14:04.414Z,7.67
2018-09-12T07:16:33.683Z,8.20
2018-09-12T07:19:03.033Z,4.60
2018-09-12T07:21:32.375Z,7.07
2018-09-12T07:24:01.818Z,6.87
2018-09-12T07:26:31.050Z,6.10
2018-09-12T07:29:00.351Z,4.83
2018-09-12T07:31:29.599Z,8.23
2018-09-12T07:33:58.940Z,6.33
2018-09-12T07:36:28.231Z,6.60
2018-09-12T07:38:57.830Z,4.53
2018-09-12T07:41:27.278Z,5.57
2018-09-12T07:43:56.623Z,6.00
2018-09-12T07:46:25.899Z,6.70
2018-09-12T07:48:55.268Z,7.23
2018-09-12T07:51:24.500Z,6.13
2018-09-12T07:53:53.835Z,5.33
2018-09-12T07:56:23.175Z,7.60
2018-09-12T07:58:52.548Z,5.70
2018-09-12T08:01:21.862Z,3.73
2018-09-12T08:03:51.194Z,4.97
2018-09-12T08:06:20.756Z,5.17
2018-09-12T08:08:50.056Z,4.13
2018-09-12T08:11:19.473Z,5.43
2018-09-12T08:13:48.764Z,6.20
2018-09-12T08:16:17.562Z,4.23
2018-09-12T08:18:46.906Z,3.80
2018-09-12T08:21:16.259Z,4.40
2018-09-12T08:23:45.558Z,4.00
2018-09-12T08:26:14.910Z,6.33
2018-09-12T08:28:44.145Z,3.97
2018-09-12T08:31:13.474Z,6.93
2018-09-12T08:33:42.766Z,3.60
2018-09-12T08:36:12.090Z,4.67
2018-09-12T08:38:41.381Z,4.13
2018-09-12T08:41:10.683Z,4.80
2018-09-12T08:43:39.893Z,3.80
2018-09-12T08:46:09.192Z,4.40
2018-09-12T08:48:38.523Z,6.40
2018-09-12T08:51:07.785Z,9.23
2018-09-12T08:53:37.063Z,10.03
2018-09-12T08:56:06.442Z,6.77
2018-09-12T08:58:35.667Z,5.17
2018-09-12T09:01:04.982Z,3.37
2018-09-12T09:03:34.323Z,5.40
2018-09-12T09:06:03.688Z,4.47
2018-09-12T09:08:33.084Z,4.83
2018-09-12T09:11:02.501Z,3.47
2018-09-12T09:13:31.788Z,5.73
2018-09-12T09:16:01.045Z,4.53
2018-09-12T09:18:30.241Z,7.83
2018-09-12T09:20:59.503Z,6.37
2018-09-12T09:23:28.697Z,5.10
2018-09-12T09:25:58.032Z,6.03
2018-09-12T09:28:27.303Z,4.83
2018-09-12T09:30:56.502Z,4.93
2018-09-12T09:33:25.831Z,7.27
2018-09-12T09:35:55.134Z,7.00
2018-09-12T09:38:24.413Z,4.43
2018-09-12T09:40:53.722Z,5.23
2018-09-12T09:43:22.963Z,5.07
2018-09-12T09:45:52.302Z,6.30
2018-09-12T09:48:21.671Z,4.90
2018-09-12T09:50:50.938Z,6.37
2018-09-12T09:53:20.275Z,8.10
2018-09-12T09:55:49.523Z,4.90
2018-09-12T09:58:18.804Z,8.17
2018-09-12T10:00:53.255Z,5.97
2018-09-12T10:03:27.653Z,6.70
2018-09-12T10:06:02.057Z,4.43
2018-09-12T10:08:35.390Z,3.10
2018-09-12T10:11:04.753Z,4.33
2018-09-12T10:13:34.166Z,5.63
2018-09-12T10:16:03.564Z,7.33
2018-09-12T10:18:32.880Z,6.27
2018-09-12T10:21:02.107Z,8.50
2018-09-12T10:23:31.393Z,3.73
2018-09-12T10:26:00.690Z,4.93
2018-09-12T10:28:29.991Z,8.37
2018-09-12T10:30:59.220Z,3.40
2018-09-12T10:33:28.507Z,4.33
2018-09-12T10:35:57.834Z,3.07
2018-09-12T10:38:27.194Z,4.63
2018-09-12T10:40:56.476Z,9.00
2018-09-12T10:43:25.799Z,6.87
2018-09-12T10:45:55.103Z,4.30
2018-09-12T10:48:24.395Z,7.67
2018-09-12T10:50:53.168Z,4.77
2018-09-12T10:53:22.452Z,6.03
2018-09-12T10:55:51.685Z,6.50
2018-09-12T10:58:21.050Z,4.53
2018-09-12T11:00:50.263Z,6.95
2018-09-12T11:03:19.557Z,5.53
2018-09-12T11:05:48.803Z,8.63
2018-09-12T11:08:18.135Z,3.55
2018-09-12T11:10:47.623Z,4.22
2018-09-12T11:13:17.106Z,6.87
2018-09-12T11:15:46.469Z,4.78
2018-09-12T11:18:15.886Z,11.35
2018-09-12T11:20:45.171Z,5.78
2018-09-12T11:23:14.566Z,4.55
2018-09-12T11:25:43.948Z,9.03
2018-09-12T11:28:13.256Z,5.78
2018-09-12T11:30:42.579Z,4.58
2018-09-12T11:33:11.886Z,6.00
2018-09-12T11:35:41.227Z,7.25
2018-09-12T11:38:10.568Z,4.85
2018-09-12T11:40:39.917Z,4.75
2018-09-12T11:43:09.219Z,5.72
2018-09-12T11:45:38.571Z,12.15
2018-09-12T11:48:07.894Z,8.60
2018-09-12T11:50:37.287Z,6.78
2018-09-12T11:53:06.580Z,5.53
2018-09-12T11:55:36.108Z,5.70
2018-09-12T11:58:05.434Z,4.95
2018-09-12T12:00:34.757Z,5.50
2018-09-12T12:03:04.091Z,5.03
2018-09-12T12:05:33.435Z,4.10
2018-09-12T12:08:02.746Z,6.08
2018-09-12T12:10:32.118Z,8.33
2018-09-12T12:13:01.398Z,4.05
2018-09-12T12:15:30.658Z,4.10
2018-09-12T12:18:00.095Z,4.80
2018-09-12T12:20:29.484Z,4.80
2018-09-12T12:22:58.714Z,6.58
2018-09-12T12:25:27.995Z,5.33
2018-09-12T12:27:57.303Z,3.87
2018-09-12T12:30:26.649Z,5.83
2018-09-12T12:32:55.890Z,3.98
2018-09-12T12:35:25.349Z,6.15
2018-09-12T12:37:54.934Z,4.60
2018-09-12T12:40:24.242Z,5.40
2018-09-12T12:42:53.540Z,4.55
2018-09-12T12:45:22.807Z,5.62
2018-09-12T12:47:52.087Z,3.58
2018-09-12T12:50:21.449Z,3.95
2018-09-12T12:52:50.810Z,6.40
2018-09-12T12:55:20.139Z,6.65
2018-09-12T12:57:49.405Z,4.03
2018-09-12T13:00:18.647Z,5.28
2018-09-12T13:02:47.926Z,7.15
2018-09-12T13:05:17.233Z,5.10
2018-09-12T13:07:46.558Z,4.20
2018-09-12T13:10:15.915Z,3.67
2018-09-12T13:12:45.230Z,11.33
2018-09-12T13:15:14.591Z,8.18
2018-09-12T13:17:43.921Z,4.58
2018-09-12T13:20:13.226Z,4.50
2018-09-12T13:22:42.588Z,5.53
2018-09-12T13:25:12.030Z,4.53
2018-09-12T13:27:41.349Z,4.90
2018-09-12T13:30:10.699Z,4.65
2018-09-12T13:32:40.091Z,7.10
2018-09-12T13:35:09.510Z,5.33
2018-09-12T13:37:38.818Z,5.12
2018-09-12T13:40:08.219Z,6.62
2018-09-12T13:42:37.584Z,6.30
2018-09-12T13:45:06.885Z,3.83
2018-09-12T13:47:36.146Z,3.92
2018-09-12T13:50:05.527Z,8.30
2018-09-12T13:52:34.943Z,3.90
2018-09-12T13:55:04.303Z,3.30
2018-09-12T13:57:33.635Z,7.17
2018-09-12T14:00:02.931Z,7.90
2018-09-12T14:02:32.334Z,3.62
2018-09-12T14:05:01.643Z,3.30
2018-09-12T14:07:30.943Z,7.17
2018-09-12T14:10:00.335Z,5.12
2018-09-12T14:12:29.626Z,6.60
2018-09-12T14:15:00.651Z,3.77
2018-09-12T14:17:30.362Z,5.60
2018-09-12T14:19:59.992Z,4.80
2018-09-12T14:22:29.333Z,4.90
2018-09-12T14:24:58.637Z,7.12
2018-09-12T14:27:27.966Z,6.62
2018-09-12T14:29:57.238Z,5.90
2018-09-12T14:32:26.594Z,4.37
2018-09-12T14:34:56.093Z,5.95
2018-09-12T14:37:25.771Z,6.65
2018-09-12T14:39:55.132Z,2.95
2018-09-12T14:42:24.462Z,6.83
2018-09-12T14:44:53.803Z,4.58
2018-09-12T14:47:23.076Z,4.75
2018-09-12T14:49:52.381Z,4.28
2018-09-12T14:52:21.705Z,4.47
2018-09-12T14:54:50.989Z,5.08
2018-09-12T14:57:20.403Z,5.47
2018-09-12T14:59:49.784Z,3.83
2018-09-12T15:02:19.116Z,3.17
2018-09-12T15:04:48.502Z,4.20
2018-09-12T15:07:17.766Z,4.65
2018-09-12T15:09:47.052Z,4.10
2018-09-12T15:12:16.334Z,3.55
2018-09-12T15:14:45.720Z,6.97
2018-09-12T15:17:15.079Z,3.47
2018-09-12T15:19:44.394Z,5.47
2018-09-12T15:22:13.798Z,4.60
2018-09-12T15:24:43.230Z,4.28
2018-09-12T15:27:12.742Z,3.83
2018-09-12T15:29:42.131Z,7.33
2018-09-12T15:32:11.442Z,4.58
2018-09-12T15:34:41.076Z,4.62
2018-09-12T15:37:10.553Z,3.62
2018-09-12T15:39:39.836Z,4.53
2018-09-12T15:42:09.125Z,4.08
2018-09-12T15:44:38.438Z,3.75
2018-09-12T15:47:07.703Z,3.70
2018-09-12T15:49:36.974Z,3.45
2018-09-12T15:52:06.539Z,6.22
2018-09-12T15:54:35.889Z,3.33
2018-09-12T15:57:05.258Z,6.60
2018-09-12T15:59:34.654Z,4.15
2018-09-12T16:02:03.920Z,6.50
2018-09-12T16:04:33.256Z,3.72
2018-09-12T16:07:02.507Z,6.10
2018-09-12T16:09:31.846Z,5.70
2018-09-12T16:12:01.067Z,5.42
2018-09-12T16:14:30.415Z,3.87
2018-09-12T16:16:59.807Z,5.45
2018-09-12T16:19:29.178Z,4.03
2018-09-12T16:21:58.479Z,5.03
2018-09-12T16:24:27.834Z,6.10
2018-09-12T16:26:57.107Z,6.83
2018-09-12T16:29:26.539Z,5.87
2018-09-12T16:31:55.917Z,3.58
2018-09-12T16:34:25.407Z,4.92
2018-09-12T16:36:54.886Z,5.70
2018-09-12T16:39:24.185Z,4.53
2018-09-12T16:41:53.450Z,3.85
2018-09-12T16:44:22.787Z,3.45
2018-09-12T16:46:52.105Z,5.58
2018-09-12T16:49:21.380Z,3.98
2018-09-12T16:51:50.693Z,3.37
2018-09-12T16:54:20.056Z,4.10
2018-09-12T16:56:48.965Z,3.00
2018-09-12T16:59:18.160Z,4.40
2018-09-12T17:01:47.492Z,5.40
2018-09-12T17:04:17.563Z,3.75
2018-09-12T17:06:46.805Z,3.52
2018-09-12T17:09:16.093Z,6.78
2018-09-12T17:11:45.418Z,5.47
2018-09-12T17:14:14.877Z,6.60
2018-09-12T17:16:44.219Z,3.75
2018-09-12T17:19:13.622Z,4.83
2018-09-12T17:21:42.887Z,3.85
2018-09-12T17:24:12.187Z,5.00
2018-09-12T17:26:41.541Z,3.05
2018-09-12T17:29:10.903Z,2.27
2018-09-12T17:31:40.219Z,3.45
2018-09-12T17:34:09.511Z,3.70
2018-09-12T17:36:38.809Z,2.67
2018-09-12T17:39:09.260Z,3.03
2018-09-12T17:41:38.599Z,3.67
2018-09-12T17:44:08.042Z,4.47
2018-09-12T17:46:37.288Z,9.47
2018-09-12T17:49:06.545Z,5.77
2018-09-12T17:51:35.826Z,2.43
2018-09-12T17:54:05.150Z,3.58
2018-09-12T17:56:34.428Z,4.10
2018-09-12T17:59:03.716Z,3.50
2018-09-12T18:01:33.054Z,5.23
2018-09-12T18:04:02.362Z,4.40
2018-09-12T18:06:31.642Z,4.13
2018-09-12T18:09:00.913Z,3.00
2018-09-12T18:11:30.286Z,4.07
2018-09-12T18:13:59.589Z,3.80
2018-09-12T18:16:28.874Z,3.60
2018-09-12T18:18:58.116Z,2.90
2018-09-12T18:21:27.377Z,3.07
2018-09-12T18:23:56.702Z,5.17
2018-09-12T18:26:25.974Z,4.97
2018-09-12T18:28:55.406Z,3.63
2018-09-12T18:31:24.734Z,6.90
2018-09-12T18:33:54.069Z,2.57
2018-09-12T18:36:23.355Z,2.87
2018-09-12T18:38:52.711Z,5.70
2018-09-12T18:41:22.231Z,3.93
2018-09-12T18:43:51.575Z,3.23
2018-09-12T18:46:20.859Z,2.73
2018-09-12T18:48:50.203Z,3.07
2018-09-12T18:51:19.510Z,3.70
2018-09-12T18:53:48.853Z,2.93
2018-09-12T18:56:18.092Z,3.37
2018-09-12T18:58:47.355Z,2.00
2018-09-12T19:01:16.734Z,2.97
2018-09-12T19:03:46.052Z,2.73
2018-09-12T19:06:15.331Z,2.97
2018-09-12T19:08:44.640Z,3.73
2018-09-12T19:11:13.903Z,3.27
2018-09-12T19:13:43.269Z,5.17
2018-09-12T19:16:12.519Z,4.17
2018-09-12T19:18:41.977Z,3.33
2018-09-12T19:21:11.325Z,3.73
2018-09-12T19:23:40.702Z,5.30
2018-09-12T19:26:10.027Z,3.43
2018-09-12T19:28:39.308Z,4.07
2018-09-12T19:31:08.662Z,4.57
2018-09-12T19:33:37.967Z,5.37
2018-09-12T19:36:07.236Z,5.77
2018-09-12T19:38:36.613Z,4.23
2018-09-12T19:41:05.889Z,3.80
2018-09-12T19:43:35.306Z,3.53
2018-09-12T19:46:04.615Z,3.73
2018-09-12T19:48:33.947Z,3.37
2018-09-12T19:51:05.632Z,4.07
2018-09-12T19:53:34.962Z,5.67
2018-09-12T19:56:04.374Z,7.77
2018-09-12T19:58:33.812Z,4.10
2018-09-12T20:01:03.178Z,4.00
2018-09-12T20:03:32.488Z,4.73
2018-09-12T20:06:01.778Z,3.40
2018-09-12T20:08:31.030Z,5.17
2018-09-12T20:11:00.339Z,11.03
2018-09-12T20:13:29.742Z,4.30
2018-09-12T20:15:59.047Z,4.80
2018-09-12T20:18:28.567Z,9.57
2018-09-12T20:20:57.866Z,5.47
2018-09-12T20:23:27.267Z,6.30
2018-09-12T20:25:56.611Z,6.13
2018-09-12T20:28:25.906Z,6.93
2018-09-12T20:30:55.250Z,5.83
2018-09-12T20:33:24.590Z,6.77
2018-09-12T20:35:53.982Z,8.23
2018-09-12T20:38:23.306Z,6.27
2018-09-12T20:40:52.736Z,6.27
2018-09-12T20:43:22.083Z,7.33
2018-09-12T20:45:51.514Z,6.97
2018-09-12T20:48:20.796Z,6.57
2018-09-12T20:50:50.062Z,11.10
2018-09-12T20:53:19.330Z,5.93
2018-09-12T20:55:48.746Z,5.40
2018-09-12T20:58:18.085Z,7.87
2018-09-12T21:00:47.402Z,6.13
2018-09-12T21:03:16.703Z,5.37
2018-09-12T21:05:46.025Z,7.80
2018-09-12T21:08:15.303Z,7.10
2018-09-12T21:10:44.767Z,6.43
2018-09-12T21:13:14.088Z,6.60
2018-09-12T21:15:43.391Z,8.73
2018-09-12T21:18:12.675Z,8.27
2018-09-12T21:20:42.209Z,7.77
2018-09-12T21:23:11.547Z,6.90
2018-09-12T21:25:40.804Z,14.53
2018-09-12T21:28:10.158Z,11.87
2018-09-12T21:30:39.498Z,8.57
2018-09-12T21:33:08.923Z,7.83
2018-09-12T21:35:38.291Z,6.80
2018-09-12T21:38:07.714Z,9.13
2018-09-12T21:40:37.130Z,9.37
2018-09-12T21:43:06.506Z,8.83
2018-09-12T21:45:35.865Z,10.37
2018-09-12T21:48:05.254Z,9.67
2018-09-12T21:50:34.578Z,10.90
2018-09-12T21:53:03.859Z,9.73
2018-09-12T21:55:33.183Z,13.77
2018-09-12T21:58:02.450Z,11.90
2018-09-12T22:00:31.838Z,12.03
2018-09-12T22:03:01.096Z,13.73
2018-09-12T22:05:30.405Z,11.03
2018-09-12T22:07:59.977Z,11.13
2018-09-12T22:10:29.143Z,12.07
2018-09-12T22:12:58.470Z,11.03
2018-09-12T22:15:27.772Z,13.70
2018-09-12T22:17:57.106Z,12.20
2018-09-12T22:20:26.394Z,11.67
2018-09-12T22:22:55.671Z,14.17
2018-09-12T22:25:24.918Z,12.73
2018-09-12T22:27:54.276Z,11.37
2018-09-12T22:30:23.607Z,10.87
2018-09-12T22:32:52.931Z,11.47
2018-09-12T22:35:22.187Z,12.43
2018-09-12T22:37:51.507Z,12.83
2018-09-12T22:40:20.842Z,17.50
2018-09-12T22:42:50.123Z,12.43
2018-09-12T22:45:19.374Z,14.57
2018-09-12T22:47:48.734Z,13.10
2018-09-12T22:50:18.142Z,15.10
2018-09-12T22:52:47.506Z,13.07
2018-09-12T22:55:16.800Z,13.60
2018-09-12T22:57:46.122Z,13.27
2018-09-12T23:00:15.393Z,13.87
2018-09-12T23:02:44.644Z,14.40
2018-09-12T23:05:13.975Z,14.63
2018-09-12T23:07:43.267Z,13.80
2018-09-12T23:10:12.542Z,13.67
2018-09-12T23:12:41.807Z,13.67
2018-09-12T23:15:11.276Z,14.93
2018-09-12T23:17:40.651Z,15.17
2018-09-12T23:20:09.894Z,14.23
2018-09-12T23:22:39.215Z,14.23
2018-09-12T23:25:08.377Z,13.17
2018-09-12T23:27:37.714Z,14.43
2018-09-12T23:30:06.994Z,12.33
2018-09-12T23:32:36.337Z,12.33
2018-09-12T23:35:05.685Z,15.77
2018-09-12T23:37:35.060Z,16.57
2018-09-12T23:40:04.337Z,13.17
2018-09-12T23:42:33.748Z,17.87
2018-09-12T23:45:03.035Z,16.10
2018-09-12T23:47:32.344Z,13.60
2018-09-12T23:50:01.727Z,15.50
2018-09-12T23:52:31.022Z,13.60
2018-09-12T23:55:00.348Z,12.43
2018-09-12T23:57:29.589Z,16.43
2018-09-12T23:59:59.306Z,13.37
